sensor_id;sensor_type;location;lat;lon;timestamp;P1;durP1;ratioP1;P2;durP2;ratioP2
71164;SDS011;58859;55.132;-1.586;2022-08-19T00:01:23;5.47;;;1.17;;
71164;SDS011;58859;55.132;-1.586;2022-08-19T00:03:49;2.33;;;1.10;;
71164;SDS011;58859;55.132;-1.586;2022-08-19T00:06:15;3.20;;;0.80;;
71164;SDS011;58859;55.132;-1.586;2022-08-19T00:08:41;1.67;;;1.00;;
71164;SDS011;58859;55.132;-1.586;2022-08-19T00:11:06;3.10;;;1.17;;
71164;SDS011;58859;55.132;-1.586;2022-08-19T00:13:32;2.73;;;0.80;;
71164;SDS011;58859;55.132;-1.586;2022-08-19T00:15:58;2.60;;;1.10;;
71164;SDS011;58859;55.132;-1.586;2022-08-19T00:18:25;1.95;;;0.90;;
71164;SDS011;58859;55.132;-1.586;2022-08-19T00:20:51;1.55;;;0.85;;
71164;SDS011;58859;55.132;-1.586;2022-08-19T00:23:16;1.65;;;0.90;;
71164;SDS011;58859;55.132;-1.586;2022-08-19T00:25:42;4.20;;;1.20;;
71164;SDS011;58859;55.132;-1.586;2022-08-19T00:28:07;3.73;;;1.30;;
71164;SDS011;58859;55.132;-1.586;2022-08-19T00:30:33;4.07;;;1.05;;
71164;SDS011;58859;55.132;-1.586;2022-08-19T00:32:59;4.00;;;1.93;;
71164;SDS011;58859;55.132;-1.586;2022-08-19T00:35:24;2.13;;;0.98;;
71164;SDS011;58859;55.132;-1.586;2022-08-19T00:37:52;1.63;;;0.60;;
71164;SDS011;58859;55.132;-1.586;2022-08-19T00:40:17;1.45;;;0.93;;
71164;SDS011;58859;55.132;-1.586;2022-08-19T00:42:44;2.85;;;1.10;;
71164;SDS011;58859;55.132;-1.586;2022-08-19T00:45:15;3.03;;;0.80;;
71164;SDS011;58859;55.132;-1.586;2022-08-19T00:47:42;3.63;;;1.17;;
71164;SDS011;58859;55.132;-1.586;2022-08-19T00:50:09;2.05;;;0.82;;
71164;SDS011;58859;55.132;-1.586;2022-08-19T00:52:37;2.70;;;0.90;;
71164;SDS011;58859;55.132;-1.586;2022-08-19T00:55:05;1.93;;;0.90;;
71164;SDS011;58859;55.132;-1.586;2022-08-19T00:57:38;3.70;;;1.00;;
71164;SDS011;58859;55.132;-1.586;2022-08-19T01:00:09;3.30;;;0.90;;
71164;SDS011;58859;55.132;-1.586;2022-08-19T01:02:38;2.60;;;0.82;;
71164;SDS011;58859;55.132;-1.586;2022-08-19T01:05:05;3.67;;;1.53;;
71164;SDS011;58859;55.132;-1.586;2022-08-19T01:07:33;1.65;;;0.77;;
71164;SDS011;58859;55.132;-1.586;2022-08-19T01:09:59;5.35;;;1.50;;
71164;SDS011;58859;55.132;-1.586;2022-08-19T01:12:25;2.63;;;0.80;;
71164;SDS011;58859;55.132;-1.586;2022-08-19T01:14:50;2.25;;;0.82;;
71164;SDS011;58859;55.132;-1.586;2022-08-19T01:17:17;4.43;;;1.23;;
71164;SDS011;58859;55.132;-1.586;2022-08-19T01:19:43;5.05;;;1.42;;
71164;SDS011;58859;55.132;-1.586;2022-08-19T01:22:12;3.28;;;0.93;;
71164;SDS011;58859;55.132;-1.586;2022-08-19T01:24:41;1.67;;;1.10;;
71164;SDS011;58859;55.132;-1.586;2022-08-19T01:27:07;3.10;;;0.93;;
71164;SDS011;58859;55.132;-1.586;2022-08-19T01:29:33;6.63;;;1.53;;
71164;SDS011;58859;55.132;-1.586;2022-08-19T01:32:00;2.65;;;1.10;;
71164;SDS011;58859;55.132;-1.586;2022-08-19T01:34:26;4.60;;;1.15;;
71164;SDS011;58859;55.132;-1.586;2022-08-19T01:36:51;2.77;;;1.10;;
71164;SDS011;58859;55.132;-1.586;2022-08-19T01:39:24;3.28;;;0.80;;
71164;SDS011;58859;55.132;-1.586;2022-08-19T01:41:50;5.05;;;1.27;;
71164;SDS011;58859;55.132;-1.586;2022-08-19T01:44:17;1.90;;;1.13;;
71164;SDS011;58859;55.132;-1.586;2022-08-19T01:46:45;3.70;;;1.30;;
71164;SDS011;58859;55.132;-1.586;2022-08-19T01:49:12;1.80;;;1.00;;
71164;SDS011;58859;55.132;-1.586;2022-08-19T01:51:37;4.97;;;1.30;;
71164;SDS011;58859;55.132;-1.586;2022-08-19T01:54:03;2.10;;;1.17;;
71164;SDS011;58859;55.132;-1.586;2022-08-19T01:56:28;3.33;;;1.10;;
71164;SDS011;58859;55.132;-1.586;2022-08-19T01:59:01;3.83;;;1.10;;
71164;SDS011;58859;55.132;-1.586;2022-08-19T02:01:28;3.47;;;1.48;;
71164;SDS011;58859;55.132;-1.586;2022-08-19T02:03:56;4.07;;;1.20;;
71164;SDS011;58859;55.132;-1.586;2022-08-19T02:06:23;3.80;;;1.25;;
71164;SDS011;58859;55.132;-1.586;2022-08-19T02:08:49;5.50;;;1.77;;
71164;SDS011;58859;55.132;-1.586;2022-08-19T02:11:18;6.67;;;1.47;;
71164;SDS011;58859;55.132;-1.586;2022-08-19T02:13:51;3.88;;;1.73;;
71164;SDS011;58859;55.132;-1.586;2022-08-19T02:16:18;6.38;;;1.50;;
71164;SDS011;58859;55.132;-1.586;2022-08-19T02:18:43;4.22;;;1.80;;
71164;SDS011;58859;55.132;-1.586;2022-08-19T02:21:09;5.45;;;1.42;;
71164;SDS011;58859;55.132;-1.586;2022-08-19T02:23:35;2.38;;;1.10;;
71164;SDS011;58859;55.132;-1.586;2022-08-19T02:26:01;4.07;;;1.40;;
71164;SDS011;58859;55.132;-1.586;2022-08-19T02:28:27;2.33;;;1.30;;
71164;SDS011;58859;55.132;-1.586;2022-08-19T02:30:52;4.30;;;1.30;;
71164;SDS011;58859;55.132;-1.586;2022-08-19T02:33:17;3.47;;;1.60;;
71164;SDS011;58859;55.132;-1.586;2022-08-19T02:35:46;3.67;;;1.38;;
71164;SDS011;58859;55.132;-1.586;2022-08-19T02:38:12;7.28;;;1.60;;
71164;SDS011;58859;55.132;-1.586;2022-08-19T02:41:03;4.32;;;1.65;;
71164;SDS011;58859;55.132;-1.586;2022-08-19T02:43:31;4.30;;;1.52;;
71164;SDS011;58859;55.132;-1.586;2022-08-19T02:46:02;2.95;;;1.20;;
71164;SDS011;58859;55.132;-1.586;2022-08-19T02:48:36;4.40;;;1.65;;
71164;SDS011;58859;55.132;-1.586;2022-08-19T02:51:02;6.18;;;1.42;;
71164;SDS011;58859;55.132;-1.586;2022-08-19T02:53:27;3.63;;;1.40;;
71164;SDS011;58859;55.132;-1.586;2022-08-19T02:55:54;1.88;;;1.65;;
71164;SDS011;58859;55.132;-1.586;2022-08-19T02:58:19;2.63;;;1.50;;
71164;SDS011;58859;55.132;-1.586;2022-08-19T03:00:50;2.53;;;1.30;;
71164;SDS011;58859;55.132;-1.586;2022-08-19T03:03:17;6.15;;;1.80;;
71164;SDS011;58859;55.132;-1.586;2022-08-19T03:05:44;3.67;;;1.25;;
71164;SDS011;58859;55.132;-1.586;2022-08-19T03:08:10;5.07;;;2.28;;
71164;SDS011;58859;55.132;-1.586;2022-08-19T03:10:43;3.53;;;1.88;;
71164;SDS011;58859;55.132;-1.586;2022-08-19T03:13:12;3.45;;;1.42;;
71164;SDS011;58859;55.132;-1.586;2022-08-19T03:15:39;3.40;;;1.60;;
71164;SDS011;58859;55.132;-1.586;2022-08-19T03:18:06;3.17;;;1.40;;
71164;SDS011;58859;55.132;-1.586;2022-08-19T03:20:32;3.27;;;1.70;;
71164;SDS011;58859;55.132;-1.586;2022-08-19T03:22:57;4.55;;;1.60;;
71164;SDS011;58859;55.132;-1.586;2022-08-19T03:25:23;5.03;;;1.60;;
71164;SDS011;58859;55.132;-1.586;2022-08-19T03:27:48;4.77;;;1.83;;
71164;SDS011;58859;55.132;-1.586;2022-08-19T03:30:14;6.03;;;1.67;;
71164;SDS011;58859;55.132;-1.586;2022-08-19T03:32:39;3.33;;;1.40;;
71164;SDS011;58859;55.132;-1.586;2022-08-19T03:35:05;4.53;;;1.67;;
71164;SDS011;58859;55.132;-1.586;2022-08-19T03:37:31;13.43;;;2.03;;
71164;SDS011;58859;55.132;-1.586;2022-08-19T03:39:57;4.10;;;1.58;;
71164;SDS011;58859;55.132;-1.586;2022-08-19T03:42:22;4.50;;;1.47;;
71164;SDS011;58859;55.132;-1.586;2022-08-19T03:44:48;1.93;;;1.27;;
71164;SDS011;58859;55.132;-1.586;2022-08-19T03:47:13;3.43;;;1.20;;
71164;SDS011;58859;55.132;-1.586;2022-08-19T03:49:42;2.58;;;1.00;;
71164;SDS011;58859;55.132;-1.586;2022-08-19T03:52:07;2.73;;;1.00;;
71164;SDS011;58859;55.132;-1.586;2022-08-19T03:54:35;4.30;;;1.58;;
71164;SDS011;58859;55.132;-1.586;2022-08-19T03:57:00;5.45;;;1.67;;
71164;SDS011;58859;55.132;-1.586;2022-08-19T03:59:27;3.63;;;1.42;;
71164;SDS011;58859;55.132;-1.586;2022-08-19T04:01:55;3.05;;;1.35;;
71164;SDS011;58859;55.132;-1.586;2022-08-19T04:04:21;2.20;;;1.20;;
71164;SDS011;58859;55.132;-1.586;2022-08-19T04:06:47;2.50;;;1.17;;
71164;SDS011;58859;55.132;-1.586;2022-08-19T04:09:13;5.65;;;2.08;;
71164;SDS011;58859;55.132;-1.586;2022-08-19T04:11:43;4.10;;;1.23;;
71164;SDS011;58859;55.132;-1.586;2022-08-19T04:14:18;4.80;;;1.40;;
71164;SDS011;58859;55.132;-1.586;2022-08-19T04:16:45;3.75;;;1.45;;
71164;SDS011;58859;55.132;-1.586;2022-08-19T04:19:12;5.35;;;1.15;;
71164;SDS011;58859;55.132;-1.586;2022-08-19T04:21:38;5.20;;;1.73;;
71164;SDS011;58859;55.132;-1.586;2022-08-19T04:24:04;4.70;;;1.20;;
71164;SDS011;58859;55.132;-1.586;2022-08-19T04:26:32;4.55;;;1.40;;
71164;SDS011;58859;55.132;-1.586;2022-08-19T04:28:59;5.80;;;1.33;;
71164;SDS011;58859;55.132;-1.586;2022-08-19T04:31:27;5.00;;;1.70;;
71164;SDS011;58859;55.132;-1.586;2022-08-19T04:33:58;4.78;;;1.20;;
71164;SDS011;58859;55.132;-1.586;2022-08-19T04:36:29;5.90;;;1.50;;
71164;SDS011;58859;55.132;-1.586;2022-08-19T04:38:57;3.38;;;1.20;;
71164;SDS011;58859;55.132;-1.586;2022-08-19T04:41:25;4.30;;;1.55;;
71164;SDS011;58859;55.132;-1.586;2022-08-19T04:44:09;5.13;;;1.98;;
71164;SDS011;58859;55.132;-1.586;2022-08-19T04:46:36;4.47;;;1.30;;
71164;SDS011;58859;55.132;-1.586;2022-08-19T04:49:02;6.47;;;1.50;;
71164;SDS011;58859;55.132;-1.586;2022-08-19T04:51:30;2.40;;;1.23;;
71164;SDS011;58859;55.132;-1.586;2022-08-19T04:53:57;2.72;;;1.35;;
71164;SDS011;58859;55.132;-1.586;2022-08-19T04:56:24;5.78;;;1.17;;
71164;SDS011;58859;55.132;-1.586;2022-08-19T04:58:51;6.72;;;1.30;;
71164;SDS011;58859;55.132;-1.586;2022-08-19T05:01:18;3.42;;;1.42;;
71164;SDS011;58859;55.132;-1.586;2022-08-19T05:03:51;3.72;;;0.90;;
71164;SDS011;58859;55.132;-1.586;2022-08-19T05:06:18;3.20;;;1.20;;
71164;SDS011;58859;55.132;-1.586;2022-08-19T05:08:45;5.10;;;1.52;;
71164;SDS011;58859;55.132;-1.586;2022-08-19T05:11:18;5.20;;;1.00;;
71164;SDS011;58859;55.132;-1.586;2022-08-19T05:13:46;6.75;;;1.58;;
71164;SDS011;58859;55.132;-1.586;2022-08-19T05:16:14;4.97;;;1.42;;
71164;SDS011;58859;55.132;-1.586;2022-08-19T05:18:41;5.30;;;1.73;;
71164;SDS011;58859;55.132;-1.586;2022-08-19T05:21:25;5.20;;;1.15;;
71164;SDS011;58859;55.132;-1.586;2022-08-19T05:24:10;5.70;;;1.30;;
71164;SDS011;58859;55.132;-1.586;2022-08-19T05:26:38;5.43;;;1.45;;
71164;SDS011;58859;55.132;-1.586;2022-08-19T05:29:04;8.30;;;1.80;;
71164;SDS011;58859;55.132;-1.586;2022-08-19T05:31:30;5.28;;;1.50;;
71164;SDS011;58859;55.132;-1.586;2022-08-19T05:33:56;5.97;;;1.30;;
71164;SDS011;58859;55.132;-1.586;2022-08-19T05:36:24;4.78;;;1.40;;
71164;SDS011;58859;55.132;-1.586;2022-08-19T05:38:53;8.90;;;2.22;;
71164;SDS011;58859;55.132;-1.586;2022-08-19T05:41:19;6.43;;;1.67;;
71164;SDS011;58859;55.132;-1.586;2022-08-19T05:43:45;4.40;;;1.50;;
71164;SDS011;58859;55.132;-1.586;2022-08-19T05:46:15;7.63;;;1.92;;
71164;SDS011;58859;55.132;-1.586;2022-08-19T05:48:44;4.22;;;1.10;;
71164;SDS011;58859;55.132;-1.586;2022-08-19T05:51:10;4.27;;;1.17;;
71164;SDS011;58859;55.132;-1.586;2022-08-19T05:53:36;3.50;;;1.17;;
71164;SDS011;58859;55.132;-1.586;2022-08-19T05:56:08;6.50;;;1.43;;
71164;SDS011;58859;55.132;-1.586;2022-08-19T05:58:35;8.05;;;1.77;;
71164;SDS011;58859;55.132;-1.586;2022-08-19T06:01:02;4.18;;;1.60;;
71164;SDS011;58859;55.132;-1.586;2022-08-19T06:03:33;4.70;;;1.33;;
71164;SDS011;58859;55.132;-1.586;2022-08-19T06:06:00;11.43;;;1.88;;
71164;SDS011;58859;55.132;-1.586;2022-08-19T06:08:27;5.05;;;1.88;;
71164;SDS011;58859;55.132;-1.586;2022-08-19T06:10:53;8.35;;;1.63;;
71164;SDS011;58859;55.132;-1.586;2022-08-19T06:13:18;5.53;;;1.70;;
71164;SDS011;58859;55.132;-1.586;2022-08-19T06:15:44;6.85;;;1.50;;
71164;SDS011;58859;55.132;-1.586;2022-08-19T06:18:13;6.95;;;2.10;;
71164;SDS011;58859;55.132;-1.586;2022-08-19T06:20:39;8.03;;;1.83;;
71164;SDS011;58859;55.132;-1.586;2022-08-19T06:23:05;10.07;;;2.30;;
71164;SDS011;58859;55.132;-1.586;2022-08-19T06:25:30;6.07;;;1.60;;
71164;SDS011;58859;55.132;-1.586;2022-08-19T06:27:56;4.95;;;1.70;;
71164;SDS011;58859;55.132;-1.586;2022-08-19T06:30:21;9.00;;;1.83;;
71164;SDS011;58859;55.132;-1.586;2022-08-19T06:32:47;8.60;;;2.00;;
71164;SDS011;58859;55.132;-1.586;2022-08-19T06:35:12;6.22;;;2.10;;
71164;SDS011;58859;55.132;-1.586;2022-08-19T06:37:39;7.05;;;1.60;;
71164;SDS011;58859;55.132;-1.586;2022-08-19T06:40:05;9.38;;;1.77;;
71164;SDS011;58859;55.132;-1.586;2022-08-19T06:42:33;8.05;;;1.30;;
71164;SDS011;58859;55.132;-1.586;2022-08-19T06:44:59;7.55;;;2.00;;
71164;SDS011;58859;55.132;-1.586;2022-08-19T06:47:28;8.77;;;1.33;;
71164;SDS011;58859;55.132;-1.586;2022-08-19T06:49:56;7.30;;;1.43;;
71164;SDS011;58859;55.132;-1.586;2022-08-19T06:52:27;7.38;;;1.42;;
71164;SDS011;58859;55.132;-1.586;2022-08-19T06:54:54;6.10;;;1.58;;
71164;SDS011;58859;55.132;-1.586;2022-08-19T06:57:21;10.65;;;2.72;;
71164;SDS011;58859;55.132;-1.586;2022-08-19T06:59:46;4.95;;;1.23;;
71164;SDS011;58859;55.132;-1.586;2022-08-19T07:02:12;8.03;;;1.40;;
71164;SDS011;58859;55.132;-1.586;2022-08-19T07:04:37;3.17;;;0.97;;
71164;SDS011;58859;55.132;-1.586;2022-08-19T07:07:09;6.20;;;1.50;;
71164;SDS011;58859;55.132;-1.586;2022-08-19T07:09:38;4.32;;;1.38;;
71164;SDS011;58859;55.132;-1.586;2022-08-19T07:12:06;4.90;;;1.23;;
71164;SDS011;58859;55.132;-1.586;2022-08-19T07:14:33;3.72;;;1.00;;
71164;SDS011;58859;55.132;-1.586;2022-08-19T07:17:03;6.50;;;1.25;;
71164;SDS011;58859;55.132;-1.586;2022-08-19T07:19:30;2.67;;;0.93;;
71164;SDS011;58859;55.132;-1.586;2022-08-19T07:21:57;6.47;;;1.02;;
71164;SDS011;58859;55.132;-1.586;2022-08-19T07:24:24;4.67;;;1.27;;
71164;SDS011;58859;55.132;-1.586;2022-08-19T07:26:52;6.43;;;1.10;;
71164;SDS011;58859;55.132;-1.586;2022-08-19T07:29:19;6.47;;;1.00;;
71164;SDS011;58859;55.132;-1.586;2022-08-19T07:31:48;8.13;;;1.30;;
71164;SDS011;58859;55.132;-1.586;2022-08-19T07:34:17;6.93;;;1.58;;
71164;SDS011;58859;55.132;-1.586;2022-08-19T07:36:43;4.50;;;1.13;;
71164;SDS011;58859;55.132;-1.586;2022-08-19T07:39:11;6.47;;;1.40;;
71164;SDS011;58859;55.132;-1.586;2022-08-19T07:41:38;5.47;;;1.20;;
71164;SDS011;58859;55.132;-1.586;2022-08-19T07:44:05;3.20;;;1.10;;
71164;SDS011;58859;55.132;-1.586;2022-08-19T07:46:32;4.88;;;1.13;;
71164;SDS011;58859;55.132;-1.586;2022-08-19T07:49:00;5.68;;;0.93;;
71164;SDS011;58859;55.132;-1.586;2022-08-19T07:51:26;4.25;;;1.05;;
71164;SDS011;58859;55.132;-1.586;2022-08-19T07:53:52;7.70;;;0.85;;
71164;SDS011;58859;55.132;-1.586;2022-08-19T07:56:19;2.87;;;0.80;;
71164;SDS011;58859;55.132;-1.586;2022-08-19T07:58:46;2.88;;;0.80;;
71164;SDS011;58859;55.132;-1.586;2022-08-19T08:01:13;5.00;;;1.30;;
71164;SDS011;58859;55.132;-1.586;2022-08-19T08:03:43;5.70;;;0.97;;
71164;SDS011;58859;55.132;-1.586;2022-08-19T08:06:28;4.43;;;1.00;;
71164;SDS011;58859;55.132;-1.586;2022-08-19T08:09:12;8.88;;;1.77;;
71164;SDS011;58859;55.132;-1.586;2022-08-19T08:11:52;6.63;;;1.17;;
71164;SDS011;58859;55.132;-1.586;2022-08-19T08:14:26;8.02;;;1.17;;
71164;SDS011;58859;55.132;-1.586;2022-08-19T08:16:57;3.20;;;0.90;;
71164;SDS011;58859;55.132;-1.586;2022-08-19T08:19:23;4.05;;;1.10;;
71164;SDS011;58859;55.132;-1.586;2022-08-19T08:21:51;3.45;;;1.05;;
71164;SDS011;58859;55.132;-1.586;2022-08-19T08:24:18;4.00;;;1.00;;
71164;SDS011;58859;55.132;-1.586;2022-08-19T08:26:43;4.50;;;0.70;;
71164;SDS011;58859;55.132;-1.586;2022-08-19T08:29:12;5.13;;;0.85;;
71164;SDS011;58859;55.132;-1.586;2022-08-19T08:31:39;1.97;;;0.80;;
71164;SDS011;58859;55.132;-1.586;2022-08-19T08:34:05;6.85;;;1.33;;
71164;SDS011;58859;55.132;-1.586;2022-08-19T08:36:31;3.60;;;0.77;;
71164;SDS011;58859;55.132;-1.586;2022-08-19T08:38:58;2.93;;;0.70;;
71164;SDS011;58859;55.132;-1.586;2022-08-19T08:41:40;4.75;;;0.90;;
71164;SDS011;58859;55.132;-1.586;2022-08-19T08:44:16;2.97;;;0.80;;
71164;SDS011;58859;55.132;-1.586;2022-08-19T08:46:47;2.97;;;0.82;;
71164;SDS011;58859;55.132;-1.586;2022-08-19T08:52:32;2.93;;;1.00;;
71164;SDS011;58859;55.132;-1.586;2022-08-19T08:54:52;5.05;;;1.20;;
71164;SDS011;58859;55.132;-1.586;2022-08-19T08:57:27;2.00;;;0.85;;
71164;SDS011;58859;55.132;-1.586;2022-08-19T08:59:56;2.67;;;1.10;;
71164;SDS011;58859;55.132;-1.586;2022-08-19T09:02:22;8.38;;;0.85;;
71164;SDS011;58859;55.132;-1.586;2022-08-19T09:04:50;4.40;;;0.73;;
71164;SDS011;58859;55.132;-1.586;2022-08-19T09:07:58;2.25;;;0.90;;
71164;SDS011;58859;55.132;-1.586;2022-08-19T09:16:06;4.25;;;0.70;;
71164;SDS011;58859;55.132;-1.586;2022-08-19T09:18:44;2.80;;;0.65;;
71164;SDS011;58859;55.132;-1.586;2022-08-19T09:21:12;1.70;;;0.70;;
71164;SDS011;58859;55.132;-1.586;2022-08-19T09:23:38;2.37;;;1.10;;
71164;SDS011;58859;55.132;-1.586;2022-08-19T09:26:11;5.15;;;0.70;;
71164;SDS011;58859;55.132;-1.586;2022-08-19T09:28:42;4.15;;;0.80;;
71164;SDS011;58859;55.132;-1.586;2022-08-19T09:31:12;3.43;;;0.90;;
71164;SDS011;58859;55.132;-1.586;2022-08-19T09:33:39;2.08;;;0.52;;
71164;SDS011;58859;55.132;-1.586;2022-08-19T09:36:06;4.38;;;0.75;;
71164;SDS011;58859;55.132;-1.586;2022-08-19T09:38:33;5.10;;;0.80;;
71164;SDS011;58859;55.132;-1.586;2022-08-19T09:41:03;5.03;;;0.82;;
71164;SDS011;58859;55.132;-1.586;2022-08-19T09:43:30;2.60;;;1.00;;
71164;SDS011;58859;55.132;-1.586;2022-08-19T09:45:56;2.25;;;0.40;;
71164;SDS011;58859;55.132;-1.586;2022-08-19T09:48:21;1.73;;;0.50;;
71164;SDS011;58859;55.132;-1.586;2022-08-19T09:50:47;3.07;;;1.00;;
71164;SDS011;58859;55.132;-1.586;2022-08-19T09:53:13;3.60;;;0.70;;
71164;SDS011;58859;55.132;-1.586;2022-08-19T09:55:42;2.57;;;0.70;;
71164;SDS011;58859;55.132;-1.586;2022-08-19T09:58:08;3.83;;;0.95;;
71164;SDS011;58859;55.132;-1.586;2022-08-19T10:00:33;2.80;;;0.60;;
71164;SDS011;58859;55.132;-1.586;2022-08-19T10:02:59;1.40;;;0.47;;
71164;SDS011;58859;55.132;-1.586;2022-08-19T10:05:24;5.18;;;0.85;;
71164;SDS011;58859;55.132;-1.586;2022-08-19T10:08:09;3.13;;;0.53;;
71164;SDS011;58859;55.132;-1.586;2022-08-19T10:10:36;5.93;;;0.65;;
71164;SDS011;58859;55.132;-1.586;2022-08-19T10:13:02;3.67;;;0.55;;
71164;SDS011;58859;55.132;-1.586;2022-08-19T10:15:28;3.50;;;0.75;;
71164;SDS011;58859;55.132;-1.586;2022-08-19T10:17:54;3.87;;;0.50;;
71164;SDS011;58859;55.132;-1.586;2022-08-19T10:20:19;0.50;;;0.50;;
71164;SDS011;58859;55.132;-1.586;2022-08-19T10:22:45;3.42;;;0.73;;
71164;SDS011;58859;55.132;-1.586;2022-08-19T10:25:10;3.97;;;0.90;;
71164;SDS011;58859;55.132;-1.586;2022-08-19T10:27:41;1.38;;;0.60;;
71164;SDS011;58859;55.132;-1.586;2022-08-19T10:30:07;2.83;;;0.73;;
71164;SDS011;58859;55.132;-1.586;2022-08-19T10:32:33;2.95;;;0.60;;
71164;SDS011;58859;55.132;-1.586;2022-08-19T10:34:59;1.53;;;0.83;;
71164;SDS011;58859;55.132;-1.586;2022-08-19T10:37:24;1.73;;;0.50;;
71164;SDS011;58859;55.132;-1.586;2022-08-19T10:39:50;2.63;;;0.40;;
71164;SDS011;58859;55.132;-1.586;2022-08-19T10:42:15;2.43;;;0.77;;
71164;SDS011;58859;55.132;-1.586;2022-08-19T10:44:42;1.80;;;0.55;;
71164;SDS011;58859;55.132;-1.586;2022-08-19T10:47:07;1.92;;;0.55;;
71164;SDS011;58859;55.132;-1.586;2022-08-19T10:49:33;1.40;;;0.47;;
71164;SDS011;58859;55.132;-1.586;2022-08-19T10:52:18;2.65;;;0.90;;
71164;SDS011;58859;55.132;-1.586;2022-08-19T10:55:02;2.58;;;0.73;;
71164;SDS011;58859;55.132;-1.586;2022-08-19T10:57:48;2.83;;;0.60;;
71164;SDS011;58859;55.132;-1.586;2022-08-19T11:00:14;1.43;;;0.60;;
71164;SDS011;58859;55.132;-1.586;2022-08-19T11:02:40;0.98;;;0.40;;
71164;SDS011;58859;55.132;-1.586;2022-08-19T11:05:06;6.93;;;0.60;;
71164;SDS011;58859;55.132;-1.586;2022-08-19T11:07:35;1.23;;;0.60;;
71164;SDS011;58859;55.132;-1.586;2022-08-19T11:10:02;2.17;;;0.47;;
71164;SDS011;58859;55.132;-1.586;2022-08-19T11:12:28;4.97;;;0.52;;
71164;SDS011;58859;55.132;-1.586;2022-08-19T11:14:54;1.80;;;0.50;;
71164;SDS011;58859;55.132;-1.586;2022-08-19T11:17:19;1.80;;;0.40;;
71164;SDS011;58859;55.132;-1.586;2022-08-19T11:19:48;1.23;;;0.40;;
71164;SDS011;58859;55.132;-1.586;2022-08-19T11:22:14;2.67;;;0.38;;
71164;SDS011;58859;55.132;-1.586;2022-08-19T11:24:40;1.53;;;0.40;;
71164;SDS011;58859;55.132;-1.586;2022-08-19T11:27:06;2.65;;;0.50;;
71164;SDS011;58859;55.132;-1.586;2022-08-19T11:29:34;1.88;;;0.65;;
71164;SDS011;58859;55.132;-1.586;2022-08-19T11:32:04;1.77;;;0.20;;
71164;SDS011;58859;55.132;-1.586;2022-08-19T11:34:34;2.30;;;0.30;;
71164;SDS011;58859;55.132;-1.586;2022-08-19T11:37:00;4.55;;;0.45;;
71164;SDS011;58859;55.132;-1.586;2022-08-19T11:39:27;2.92;;;0.35;;
71164;SDS011;58859;55.132;-1.586;2022-08-19T11:41:53;0.65;;;0.40;;
71164;SDS011;58859;55.132;-1.586;2022-08-19T11:44:20;0.60;;;0.20;;
71164;SDS011;58859;55.132;-1.586;2022-08-19T11:46:45;2.17;;;0.22;;
71164;SDS011;58859;55.132;-1.586;2022-08-19T11:49:12;1.10;;;0.20;;
71164;SDS011;58859;55.132;-1.586;2022-08-19T11:51:39;2.70;;;0.30;;
71164;SDS011;58859;55.132;-1.586;2022-08-19T11:54:07;0.90;;;0.30;;
71164;SDS011;58859;55.132;-1.586;2022-08-19T11:56:33;2.75;;;0.60;;
71164;SDS011;58859;55.132;-1.586;2022-08-19T11:58:58;2.63;;;0.40;;
71164;SDS011;58859;55.132;-1.586;2022-08-19T12:01:25;3.20;;;0.40;;
71164;SDS011;58859;55.132;-1.586;2022-08-19T12:03:52;1.77;;;0.30;;
71164;SDS011;58859;55.132;-1.586;2022-08-19T12:06:20;1.43;;;0.30;;
71164;SDS011;58859;55.132;-1.586;2022-08-19T12:08:54;3.00;;;0.40;;
71164;SDS011;58859;55.132;-1.586;2022-08-19T12:11:21;1.38;;;0.40;;
71164;SDS011;58859;55.132;-1.586;2022-08-19T12:13:46;0.85;;;0.17;;
71164;SDS011;58859;55.132;-1.586;2022-08-19T12:16:24;1.30;;;0.20;;
71164;SDS011;58859;55.132;-1.586;2022-08-19T12:18:52;1.50;;;0.30;;
71164;SDS011;58859;55.132;-1.586;2022-08-19T12:21:19;1.33;;;0.30;;
71164;SDS011;58859;55.132;-1.586;2022-08-19T12:23:46;1.35;;;0.28;;
71164;SDS011;58859;55.132;-1.586;2022-08-19T12:26:13;3.42;;;0.30;;
71164;SDS011;58859;55.132;-1.586;2022-08-19T12:28:38;3.53;;;0.40;;
71164;SDS011;58859;55.132;-1.586;2022-08-19T12:31:04;1.17;;;0.27;;
71164;SDS011;58859;55.132;-1.586;2022-08-19T12:33:30;0.63;;;0.30;;
71164;SDS011;58859;55.132;-1.586;2022-08-19T12:36:00;2.25;;;0.30;;
71164;SDS011;58859;55.132;-1.586;2022-08-19T12:38:27;1.42;;;0.10;;
71164;SDS011;58859;55.132;-1.586;2022-08-19T12:40:52;0.60;;;0.10;;
71164;SDS011;58859;55.132;-1.586;2022-08-19T12:43:18;0.83;;;0.17;;
71164;SDS011;58859;55.132;-1.586;2022-08-19T12:45:45;0.98;;;0.20;;
71164;SDS011;58859;55.132;-1.586;2022-08-19T12:48:11;0.70;;;0.20;;
71164;SDS011;58859;55.132;-1.586;2022-08-19T12:50:40;1.75;;;0.30;;
71164;SDS011;58859;55.132;-1.586;2022-08-19T12:53:06;2.25;;;0.20;;
71164;SDS011;58859;55.132;-1.586;2022-08-19T12:55:31;3.00;;;0.60;;
71164;SDS011;58859;55.132;-1.586;2022-08-19T12:57:57;6.57;;;0.60;;
71164;SDS011;58859;55.132;-1.586;2022-08-19T13:00:22;1.98;;;0.30;;
71164;SDS011;58859;55.132;-1.586;2022-08-19T13:02:49;2.37;;;0.40;;
71164;SDS011;58859;55.132;-1.586;2022-08-19T13:05:17;1.60;;;0.30;;
71164;SDS011;58859;55.132;-1.586;2022-08-19T13:07:48;1.05;;;0.30;;
71164;SDS011;58859;55.132;-1.586;2022-08-19T13:10:15;2.10;;;0.50;;
71164;SDS011;58859;55.132;-1.586;2022-08-19T13:12:43;2.83;;;0.40;;
71164;SDS011;58859;55.132;-1.586;2022-08-19T13:15:09;2.80;;;0.50;;
71164;SDS011;58859;55.132;-1.586;2022-08-19T13:17:35;2.47;;;0.60;;
71164;SDS011;58859;55.132;-1.586;2022-08-19T13:20:01;3.08;;;0.50;;
71164;SDS011;58859;55.132;-1.586;2022-08-19T13:22:28;2.57;;;0.40;;
71164;SDS011;58859;55.132;-1.586;2022-08-19T13:24:53;2.38;;;0.50;;
71164;SDS011;58859;55.132;-1.586;2022-08-19T13:27:18;1.67;;;0.20;;
71164;SDS011;58859;55.132;-1.586;2022-08-19T13:29:44;1.53;;;0.60;;
71164;SDS011;58859;55.132;-1.586;2022-08-19T13:32:28;2.10;;;0.38;;
71164;SDS011;58859;55.132;-1.586;2022-08-19T13:35:13;2.08;;;0.50;;
71164;SDS011;58859;55.132;-1.586;2022-08-19T13:37:38;3.57;;;0.63;;
71164;SDS011;58859;55.132;-1.586;2022-08-19T13:40:12;1.27;;;0.20;;
71164;SDS011;58859;55.132;-1.586;2022-08-19T13:42:42;1.80;;;0.55;;
71164;SDS011;58859;55.132;-1.586;2022-08-19T13:45:08;2.77;;;0.50;;
71164;SDS011;58859;55.132;-1.586;2022-08-19T13:47:34;1.80;;;0.57;;
71164;SDS011;58859;55.132;-1.586;2022-08-19T13:50:03;1.30;;;0.30;;
71164;SDS011;58859;55.132;-1.586;2022-08-19T13:52:29;1.03;;;0.30;;
71164;SDS011;58859;55.132;-1.586;2022-08-19T13:54:55;1.83;;;0.60;;
71164;SDS011;58859;55.132;-1.586;2022-08-19T13:57:21;2.63;;;1.13;;
71164;SDS011;58859;55.132;-1.586;2022-08-19T13:59:47;2.30;;;0.50;;
71164;SDS011;58859;55.132;-1.586;2022-08-19T14:02:12;3.57;;;0.50;;
71164;SDS011;58859;55.132;-1.586;2022-08-19T14:04:37;1.90;;;0.40;;
71164;SDS011;58859;55.132;-1.586;2022-08-19T14:07:03;3.60;;;0.60;;
71164;SDS011;58859;55.132;-1.586;2022-08-19T14:09:29;1.63;;;0.23;;
71164;SDS011;58859;55.132;-1.586;2022-08-19T14:11:55;2.25;;;0.50;;
71164;SDS011;58859;55.132;-1.586;2022-08-19T14:14:20;2.13;;;0.37;;
71164;SDS011;58859;55.132;-1.586;2022-08-19T14:16:46;2.58;;;0.57;;
71164;SDS011;58859;55.132;-1.586;2022-08-19T14:19:12;1.58;;;0.47;;
71164;SDS011;58859;55.132;-1.586;2022-08-19T14:21:37;2.77;;;0.80;;
71164;SDS011;58859;55.132;-1.586;2022-08-19T14:24:04;1.35;;;0.20;;
71164;SDS011;58859;55.132;-1.586;2022-08-19T14:26:29;1.30;;;0.40;;
71164;SDS011;58859;55.132;-1.586;2022-08-19T14:28:55;2.42;;;0.55;;
71164;SDS011;58859;55.132;-1.586;2022-08-19T14:31:22;3.05;;;0.52;;
71164;SDS011;58859;55.132;-1.586;2022-08-19T14:33:48;0.40;;;0.30;;
71164;SDS011;58859;55.132;-1.586;2022-08-19T14:36:15;3.22;;;0.30;;
71164;SDS011;58859;55.132;-1.586;2022-08-19T14:38:42;4.25;;;0.73;;
71164;SDS011;58859;55.132;-1.586;2022-08-19T14:41:18;1.10;;;0.30;;
71164;SDS011;58859;55.132;-1.586;2022-08-19T14:43:47;1.73;;;0.32;;
71164;SDS011;58859;55.132;-1.586;2022-08-19T14:46:14;1.50;;;0.30;;